Time;durP1;ratioP1;P1;durP2;ratioP2;P2;SDS_P1;SDS_P2;PMS_P1;PMS_P2;Temp;Humidity;BMP_temperature;BMP_pressure;BME280_temperature;BME280_humidity;BME280_pressure;Samples;Min_cycle;Max_cycle;Signal;HPM_P1;HPM_P2
2022/05/07 00:00:46;;;;;;;7.57;4.00;;;11.40;99.90;;;;;;5076264;28;20614;-71
2022/05/07 00:03:13;;;;;;;7.90;4.63;;;11.40;99.90;;;;;;5093408;28;20207;-71
2022/05/07 00:05:39;;;;;;;6.75;4.13;;;11.40;99.90;;;;;;5075494;28;20244;-71
2022/05/07 00:08:06;;;;;;;8.40;4.30;;;11.40;99.90;;;;;;5093778;28;20191;-71
2022/05/07 00:10:32;;;;;;;4.95;4.65;;;11.40;99.90;;;;;;5093930;28;20229;-72
2022/05/07 00:12:59;;;;;;;8.77;4.70;;;11.40;99.90;;;;;;5093895;28;20198;-71
2022/05/07 00:15:25;;;;;;;4.30;4.00;;;11.40;99.90;;;;;;5093921;28;20552;-72
2022/05/07 00:18:06;;;;;;;3.85;3.55;;;11.40;99.90;;;;;;5093935;28;20682;-72
2022/05/07 00:20:33;;;;;;;4.20;3.90;;;11.40;99.90;;;;;;5093443;28;20195;-72
2022/05/07 00:23:01;;;;;;;12.38;4.97;;;11.40;99.90;;;;;;5093307;28;20609;-72
2022/05/07 00:25:28;;;;;;;4.72;4.22;;;11.30;99.90;;;;;;5092931;28;20222;-72
2022/05/07 00:27:55;;;;;;;5.63;3.72;;;11.20;99.90;;;;;;5093935;28;20198;-72
2022/05/07 00:30:21;;;;;;;4.32;3.95;;;11.20;99.90;;;;;;5093954;28;20514;-72
2022/05/07 00:32:48;;;;;;;4.85;4.50;;;11.00;99.90;;;;;;5093760;28;20199;-69
2022/05/07 00:35:15;;;;;;;5.22;4.65;;;11.00;99.90;;;;;;5092699;28;20218;-70
2022/05/07 00:37:42;;;;;;;5.50;4.10;;;10.80;99.90;;;;;;5092961;28;20207;-70
2022/05/07 00:40:08;;;;;;;5.93;3.92;;;10.70;99.90;;;;;;5075119;28;20199;-70
2022/05/07 00:42:35;;;;;;;4.78;4.47;;;10.60;99.90;;;;;;5092986;28;20203;-70
2022/05/07 00:45:02;;;;;;;4.07;3.78;;;10.70;99.90;;;;;;5075527;28;20248;-70
2022/05/07 00:47:31;;;;;;;4.38;4.00;;;10.50;99.90;;;;;;5093372;28;20673;-70
2022/05/07 00:52:45;;;;;;;6.07;4.82;;;10.40;99.90;;;;;;5093705;28;20191;-70
2022/05/07 00:55:13;;;;;;;5.03;4.55;;;10.30;99.90;;;;;;5093083;28;20207;-70
2022/05/07 00:57:40;;;;;;;4.78;3.72;;;10.10;99.90;;;;;;5093512;28;20260;-70
2022/05/07 01:00:11;;;;;;;5.35;4.18;;;10.20;99.90;;;;;;5093064;28;20211;-72
2022/05/07 01:02:38;;;;;;;5.80;4.55;;;10.30;99.90;;;;;;5075976;28;20239;-69
2022/05/07 01:05:06;;;;;;;4.80;4.50;;;10.30;99.90;;;;;;5074594;28;20284;-69
2022/05/07 01:07:35;;;;;;;5.47;4.25;;;10.30;99.90;;;;;;5092587;28;20296;-69
2022/05/07 01:10:04;;;;;;;4.00;3.65;;;10.20;99.90;;;;;;5092704;28;20195;-69
2022/05/07 01:12:31;;;;;;;6.05;4.10;;;10.20;99.90;;;;;;5092480;28;20191;-69
2022/05/07 01:14:58;;;;;;;4.18;3.78;;;10.00;99.90;;;;;;5092706;28;20203;-69
2022/05/07 01:17:25;;;;;;;6.10;4.90;;;9.90;99.90;;;;;;5074871;28;20203;-69
2022/05/07 01:19:53;;;;;;;5.55;5.05;;;9.90;99.90;;;;;;5074469;28;20225;-68
2022/05/07 01:22:22;;;;;;;6.47;4.40;;;9.80;99.90;;;;;;5092984;28;20200;-69
2022/05/07 01:24:49;;;;;;;5.70;5.20;;;9.80;99.90;;;;;;5074417;28;20223;-69
2022/05/07 01:27:15;;;;;;;4.53;4.13;;;9.80;99.90;;;;;;5092388;28;20206;-69
2022/05/07 01:29:42;;;;;;;5.63;5.10;;;9.80;99.90;;;;;;5092856;28;20195;-69
2022/05/07 01:32:09;;;;;;;5.95;5.45;;;9.80;99.90;;;;;;5092473;28;20204;-69
2022/05/07 01:34:35;;;;;;;5.20;4.78;;;9.80;99.90;;;;;;5092836;28;20218;-69
2022/05/07 01:37:02;;;;;;;8.15;5.15;;;9.80;99.90;;;;;;5092203;28;20567;-69
2022/05/07 01:39:28;;;;;;;4.95;4.45;;;9.80;99.90;;;;;;5074632;28;20289;-69
2022/05/07 01:41:54;;;;;;;5.03;4.63;;;9.90;99.90;;;;;;5092569;28;20206;-69
2022/05/07 01:44:21;;;;;;;5.45;5.00;;;9.90;99.90;;;;;;5092810;28;20234;-69
2022/05/07 01:49:32;;;;;;;5.82;4.47;;;10.00;99.90;;;;;;5096110;28;20301;-69
2022/05/07 01:51:59;;;;;;;9.10;5.35;;;10.00;99.90;;;;;;5096427;28;20201;-68
2022/05/07 01:54:26;;;;;;;5.10;4.57;;;10.00;99.90;;;;;;5077946;28;20675;-69
2022/05/07 01:56:53;;;;;;;4.80;4.50;;;10.00;99.90;;;;;;5096390;28;20210;-68
2022/05/07 01:59:19;;;;;;;4.85;4.40;;;9.90;99.90;;;;;;5096190;28;20203;-69
2022/05/07 02:01:46;;;;;;;8.43;4.38;;;9.90;99.90;;;;;;5077893;28;20577;-68
2022/05/07 02:04:12;;;;;;;4.88;4.47;;;9.90;99.90;;;;;;5095905;28;20219;-69
2022/05/07 02:06:39;;;;;;;6.05;4.20;;;9.90;99.90;;;;;;5095668;28;20227;-68
2022/05/07 02:09:05;;;;;;;7.68;4.63;;;9.90;99.90;;;;;;5077723;28;20679;-68
2022/05/07 02:11:31;;;;;;;8.18;4.00;;;10.00;99.90;;;;;;5096004;28;20260;-68
2022/05/07 02:13:58;;;;;;;4.32;3.92;;;10.00;99.90;;;;;;5077891;28;20196;-69
2022/05/07 02:16:24;;;;;;;4.60;4.20;;;10.00;99.90;;;;;;5095737;28;20199;-69
2022/05/07 02:18:51;;;;;;;4.55;4.25;;;10.00;99.90;;;;;;5095586;28;20206;-69
2022/05/07 02:21:18;;;;;;;4.40;4.00;;;10.10;99.90;;;;;;5095158;28;20207;-69
2022/05/07 02:23:44;;;;;;;4.13;3.83;;;10.20;99.90;;;;;;5095025;28;20204;-69
2022/05/07 02:26:11;;;;;;;5.07;4.25;;;9.90;99.90;;;;;;5095768;28;20225;-68
2022/05/07 02:28:37;;;;;;;4.18;3.85;;;9.80;99.90;;;;;;5095723;28;20202;-68
2022/05/07 02:31:04;;;;;;;5.15;4.65;;;9.80;99.90;;;;;;5095602;28;20202;-69
2022/05/07 02:33:30;;;;;;;4.85;4.40;;;9.70;99.90;;;;;;5095362;28;20308;-68
2022/05/07 02:35:56;;;;;;;4.88;4.43;;;9.70;99.90;;;;;;5077167;28;20302;-69
2022/05/07 02:38:23;;;;;;;4.90;4.35;;;9.70;99.90;;;;;;5095103;28;20203;-69
2022/05/07 02:43:34;;;;;;;5.35;4.85;;;9.70;99.90;;;;;;5080083;28;20190;-69
2022/05/07 02:46:00;;;;;;;6.18;5.00;;;9.80;99.90;;;;;;5095452;28;20223;-68
2022/05/07 02:48:27;;;;;;;7.65;4.63;;;9.80;99.90;;;;;;5095142;28;20199;-68
2022/05/07 02:50:53;;;;;;;5.45;4.65;;;9.80;99.90;;;;;;5095270;28;20253;-69
2022/05/07 02:53:20;;;;;;;4.93;4.28;;;9.90;99.90;;;;;;5095293;28;20199;-69
2022/05/07 02:55:47;;;;;;;5.95;3.90;;;9.80;99.90;;;;;;5076446;28;20352;-69
2022/05/07 02:58:13;;;;;;;5.25;4.50;;;9.80;99.90;;;;;;5093919;28;20199;-68
2022/05/07 03:00:41;;;;;;;5.30;5.00;;;9.80;99.90;;;;;;5094756;28;20577;-69
2022/05/07 03:03:08;;;;;;;4.85;4.07;;;9.90;99.90;;;;;;5095015;28;20209;-69
2022/05/07 03:05:34;;;;;;;5.15;4.70;;;9.80;99.90;;;;;;5094755;28;20607;-68
2022/05/07 03:08:01;;;;;;;6.20;3.90;;;9.80;99.90;;;;;;5094607;28;20729;-69
2022/05/07 03:10:27;;;;;;;4.28;3.95;;;9.70;99.90;;;;;;5094619;28;20203;-69
2022/05/07 03:12:54;;;;;;;4.05;3.85;;;9.50;99.90;;;;;;5075896;28;20199;-69
2022/05/07 03:15:20;;;;;;;5.28;4.70;;;9.40;99.90;;;;;;5094293;28;20207;-68
2022/05/07 03:17:47;;;;;;;5.10;4.13;;;9.40;99.90;;;;;;5094549;28;20207;-69
2022/05/07 03:20:16;;;;;;;5.60;4.50;;;9.40;99.90;;;;;;5076494;28;20562;-68
2022/05/07 03:22:42;;;;;;;5.68;4.40;;;9.20;99.90;;;;;;5094066;28;20207;-69
2022/05/07 03:25:09;;;;;;;4.90;4.50;;;9.10;99.90;;;;;;5076429;28;20218;-68
2022/05/07 03:27:35;;;;;;;5.05;4.70;;;9.00;99.90;;;;;;5076311;28;20260;-69
2022/05/07 03:30:02;;;;;;;4.97;4.30;;;8.90;99.90;;;;;;5094289;28;20659;-68
2022/05/07 03:32:28;;;;;;;4.65;4.25;;;8.80;99.90;;;;;;5093943;28;20195;-69
2022/05/07 03:34:57;;;;;;;5.10;4.70;;;8.70;99.90;;;;;;5076848;28;20203;-69
2022/05/07 03:37:24;;;;;;;5.25;4.85;;;8.70;99.90;;;;;;5093950;28;20562;-68
2022/05/07 03:39:51;;;;;;;5.93;4.78;;;8.70;99.90;;;;;;5094611;28;20199;-68
2022/05/07 03:42:18;;;;;;;4.80;4.40;;;8.70;99.90;;;;;;5094194;28;20202;-69
2022/05/07 03:44:44;;;;;;;4.07;3.78;;;8.60;99.90;;;;;;5094084;28;20285;-69
2022/05/07 03:47:11;;;;;;;7.43;3.72;;;8.80;99.90;;;;;;5075530;28;20207;-69
2022/05/07 03:49:38;;;;;;;5.28;4.78;;;8.70;99.90;;;;;;5075354;28;20199;-69
2022/05/07 03:54:49;;;;;;;5.90;5.38;;;8.50;99.90;;;;;;5093816;28;20191;-68
2022/05/07 03:57:16;;;;;;;6.35;4.32;;;8.50;99.90;;;;;;5076074;28;20606;-68
2022/05/07 03:59:43;;;;;;;5.22;4.70;;;8.50;99.90;;;;;;5093157;28;20203;-68
2022/05/07 04:02:10;;;;;;;4.63;3.90;;;8.50;99.90;;;;;;5093222;28;20647;-68
2022/05/07 04:04:36;;;;;;;11.07;4.97;;;8.60;99.90;;;;;;5075253;28;20220;-69
2022/05/07 04:07:04;;;;;;;6.15;4.20;;;8.70;99.90;;;;;;5093369;28;20260;-68
2022/05/07 04:09:30;;;;;;;4.45;4.03;;;8.70;99.90;;;;;;5092659;28;20207;-68
2022/05/07 04:11:57;;;;;;;4.50;4.10;;;8.70;99.90;;;;;;5093373;28;20205;-69
2022/05/07 04:14:23;;;;;;;4.50;4.10;;;8.70;99.90;;;;;;5093599;28;20206;-69
2022/05/07 04:16:49;;;;;;;5.25;4.15;;;8.80;99.90;;;;;;5093317;28;20252;-69
2022/05/07 04:19:16;;;;;;;3.97;3.78;;;8.80;99.90;;;;;;5093089;28;20218;-68
2022/05/07 04:21:43;;;;;;;5.07;4.60;;;8.90;99.90;;;;;;5093108;28;20673;-69
2022/05/07 04:24:09;;;;;;;4.53;4.13;;;8.90;99.90;;;;;;5093512;28;20195;-68
2022/05/07 04:26:36;;;;;;;5.40;4.15;;;8.90;99.90;;;;;;5093350;28;20541;-68
2022/05/07 04:29:02;;;;;;;4.85;4.28;;;8.90;99.90;;;;;;5093536;28;20195;-69
2022/05/07 04:31:28;;;;;;;5.68;4.20;;;8.80;99.90;;;;;;5092456;28;20203;-68
2022/05/07 04:33:55;;;;;;;5.07;4.50;;;8.90;99.90;;;;;;5092586;28;20225;-69
2022/05/07 04:36:21;;;;;;;5.00;4.50;;;8.80;99.90;;;;;;5093469;28;20206;-68
2022/05/07 04:38:48;;;;;;;5.32;4.82;;;8.80;99.90;;;;;;5093329;28;20202;-68
2022/05/07 04:41:14;;;;;;;5.85;5.30;;;9.00;99.90;;;;;;5093271;28;20207;-69
2022/05/07 04:43:41;;;;;;;4.95;4.43;;;9.00;99.90;;;;;;5092923;28;20667;-69
2022/05/07 04:46:07;;;;;;;6.25;4.90;;;9.10;99.90;;;;;;5092916;28;20219;-69
2022/05/07 04:48:33;;;;;;;6.43;4.88;;;9.10;99.90;;;;;;5093352;28;20195;-69
2022/05/07 04:51:01;;;;;;;7.55;4.97;;;9.20;99.90;;;;;;5092527;28;20200;-68
2022/05/07 04:53:27;;;;;;;5.65;4.93;;;9.20;99.90;;;;;;5075322;28;20567;-69
2022/05/07 04:55:54;;;;;;;7.78;4.38;;;9.10;99.90;;;;;;5093385;28;20199;-69
2022/05/07 04:58:21;;;;;;;7.00;4.40;;;9.10;99.90;;;;;;5093389;28;20195;-69
2022/05/07 05:00:47;;;;;;;8.93;5.22;;;9.10;99.90;;;;;;5092978;28;20195;-69
2022/05/07 05:03:15;;;;;;;7.07;5.47;;;9.20;99.90;;;;;;5075180;28;20253;-68
2022/05/07 05:05:41;;;;;;;9.85;5.30;;;9.40;99.90;;;;;;5074843;28;20235;-69
2022/05/07 05:08:07;;;;;;;5.97;4.40;;;9.60;99.90;;;;;;5092751;28;20705;-69
2022/05/07 05:10:34;;;;;;;4.70;4.30;;;9.70;99.90;;;;;;5093048;28;20571;-69
2022/05/07 05:13:00;;;;;;;6.45;4.80;;;9.80;99.90;;;;;;5074908;28;20206;-68
2022/05/07 05:15:27;;;;;;;5.30;4.53;;;9.90;99.90;;;;;;5074540;28;20573;-69
2022/05/07 05:17:53;;;;;;;5.40;4.90;;;10.00;99.90;;;;;;5092532;28;20559;-68
2022/05/07 05:20:20;;;;;;;4.45;4.07;;;10.20;99.90;;;;;;5092299;28;20199;-69
2022/05/07 05:22:50;;;;;;;6.65;4.32;;;10.20;99.90;;;;;;5078456;28;20207;-69
2022/05/07 05:25:19;;;;;;;5.13;4.40;;;10.30;99.90;;;;;;5096465;28;20215;-69
2022/05/07 05:27:46;;;;;;;6.07;4.07;;;10.40;99.90;;;;;;5078227;28;20647;-69
2022/05/07 05:30:13;;;;;;;5.38;4.22;;;10.60;99.90;;;;;;5096828;28;20583;-69
2022/05/07 05:32:40;;;;;;;5.78;5.30;;;10.70;99.90;;;;;;5096352;28;20209;-69
2022/05/07 05:35:06;;;;;;;4.60;4.20;;;10.80;99.90;;;;;;5061645;28;20202;-69
2022/05/07 05:37:33;;;;;;;8.25;4.93;;;11.00;99.90;;;;;;5078343;28;20206;-69
2022/05/07 05:39:59;;;;;;;5.50;4.78;;;11.10;99.90;;;;;;5061669;28;20624;-68
2022/05/07 05:42:26;;;;;;;4.53;4.22;;;11.20;99.90;;;;;;5078253;28;20304;-69
2022/05/07 05:44:52;;;;;;;5.13;4.72;;;11.30;99.90;;;;;;5096344;28;20563;-69
2022/05/07 05:47:18;;;;;;;6.80;5.07;;;11.40;99.90;;;;;;5096333;28;20538;-69
2022/05/07 05:49:45;;;;;;;6.28;4.35;;;11.60;99.90;;;;;;5078100;28;20628;-69
2022/05/07 05:52:11;;;;;;;8.00;4.45;;;11.70;99.90;;;;;;5096304;28;20611;-69
2022/05/07 05:54:38;;;;;;;4.95;4.55;;;11.70;99.90;;;;;;5096093;28;20693;-69
2022/05/07 05:57:04;;;;;;;6.47;4.65;;;11.70;99.90;;;;;;5061797;28;20195;-69
2022/05/07 05:59:31;;;;;;;5.75;5.15;;;11.80;99.90;;;;;;5077434;28;20203;-69
2022/05/07 06:01:57;;;;;;;8.05;5.38;;;11.90;99.90;;;;;;5096302;28;20222;-73
2022/05/07 06:04:24;;;;;;;6.50;5.60;;;12.00;99.90;;;;;;5095508;28;20199;-69
2022/05/07 06:06:50;;;;;;;5.82;5.43;;;12.10;99.90;;;;;;5095453;28;20289;-68
2022/05/07 06:09:16;;;;;;;6.80;5.47;;;12.30;99.90;;;;;;5095592;28;20773;-69
2022/05/07 06:11:43;;;;;;;7.20;5.20;;;12.60;99.90;;;;;;5095995;28;20245;-69
2022/05/07 06:14:09;;;;;;;6.30;5.40;;;12.70;99.90;;;;;;5095607;28;20532;-69
2022/05/07 06:16:36;;;;;;;11.20;7.20;;;12.90;99.90;;;;;;5077266;28;21003;-69
2022/05/07 06:19:03;;;;;;;11.48;6.63;;;13.10;99.90;;;;;;5095510;28;21154;-69
2022/05/07 06:21:32;;;;;;;5.90;5.30;;;13.20;99.90;;;;;;5095666;28;20203;-69
2022/05/07 06:27:28;;;;;;;7.73;6.23;;;13.40;99.90;;;;;;5077412;28;20570;-69
2022/05/07 06:29:30;;;;;;;10.67;6.20;;;13.50;99.90;;;;;;5095931;28;20555;-69
2022/05/07 06:31:57;;;;;;;11.43;6.83;;;13.70;99.90;;;;;;5094547;28;20985;-69
2022/05/07 06:34:24;;;;;;;7.70;6.27;;;13.90;99.90;;;;;;5094672;28;20597;-69
2022/05/07 06:36:50;;;;;;;8.73;7.97;;;13.90;99.90;;;;;;5095473;28;20623;-69
2022/05/07 06:39:18;;;;;;;9.00;7.17;;;13.90;99.90;;;;;;5077668;28;20595;-69
2022/05/07 06:41:45;;;;;;;7.30;6.70;;;14.00;99.90;;;;;;5076866;28;21175;-69
2022/05/07 06:44:11;;;;;;;11.70;7.27;;;14.00;99.90;;;;;;5095128;28;20605;-70
2022/05/07 06:46:37;;;;;;;8.77;7.73;;;14.10;99.90;;;;;;5095192;28;20649;-70
2022/05/07 06:49:04;;;;;;;12.53;7.27;;;14.20;99.90;;;;;;5094810;28;20606;-70
2022/05/07 06:51:32;;;;;;;9.67;8.67;;;14.30;99.90;;;;;;5094974;28;20720;-70
2022/05/07 06:53:58;;;;;;;10.00;9.00;;;14.40;99.90;;;;;;5095079;28;20598;-70
2022/05/07 06:56:25;;;;;;;8.23;7.43;;;14.60;99.90;;;;;;5094985;28;21187;-69
2022/05/07 06:58:51;;;;;;;10.53;8.73;;;14.50;99.90;;;;;;5077398;28;20609;-70
2022/05/07 07:01:17;;;;;;;12.00;9.10;;;14.70;99.90;;;;;;5094680;28;20617;-69
2022/05/07 07:03:44;;;;;;;8.87;7.97;;;14.70;99.90;;;;;;5095107;28;20605;-68
2022/05/07 07:06:10;;;;;;;20.83;8.73;;;14.80;99.90;;;;;;5060030;28;20673;-69
2022/05/07 07:08:37;;;;;;;9.97;7.50;;;14.90;99.90;;;;;;5094603;28;20614;-68
2022/05/07 07:11:03;;;;;;;8.53;7.73;;;14.80;99.90;;;;;;5076261;28;20610;-69
2022/05/07 07:13:29;;;;;;;9.17;8.00;;;15.10;99.90;;;;;;5076599;28;20943;-69
2022/05/07 07:15:56;;;;;;;10.57;7.60;;;15.30;99.90;;;;;;5095015;28;20618;-69
2022/05/07 07:18:23;;;;;;;9.87;8.10;;;15.30;99.90;;;;;;5093942;28;20624;-69
2022/05/07 07:20:49;;;;;;;11.67;8.37;;;15.60;99.90;;;;;;5094713;28;20916;-69
2022/05/07 07:23:16;;;;;;;10.23;7.73;;;15.70;99.90;;;;;;5094304;28;20979;-69
2022/05/07 07:25:43;;;;;;;13.80;7.67;;;15.80;99.90;;;;;;5093930;28;20992;-69
2022/05/07 07:28:11;;;;;;;17.63;7.80;;;16.00;99.90;;;;;;5094324;28;20613;-69
2022/05/07 07:30:38;;;;;;;10.10;7.00;;;15.80;99.90;;;;;;5094391;28;20605;-69
2022/05/07 07:33:05;;;;;;;7.03;6.27;;;16.10;99.90;;;;;;5094272;28;21207;-69
2022/05/07 07:35:32;;;;;;;7.90;5.70;;;16.20;99.90;;;;;;5093971;28;20977;-69
2022/05/07 07:37:58;;;;;;;7.77;5.63;;;16.10;99.90;;;;;;5094681;28;20977;-69
2022/05/07 07:40:25;;;;;;;6.53;6.00;;;16.40;99.90;;;;;;5076079;28;20613;-69
2022/05/07 07:42:51;;;;;;;11.53;5.97;;;16.50;99.90;;;;;;5076609;28;20956;-69
2022/05/07 07:48:03;;;;;;;6.67;6.10;;;16.60;99.90;;;;;;5078769;28;21122;-69
2022/05/07 07:50:34;;;;;;;11.20;6.47;;;16.60;99.90;;;;;;5094351;28;20648;-69
2022/05/07 07:53:11;;;;;;;6.10;4.97;;;16.70;99.90;;;;;;5094035;28;21275;-69
2022/05/07 07:55:38;;;;;;;10.47;5.90;;;16.90;99.90;;;;;;5094047;28;20689;-69
2022/05/07 07:58:07;;;;;;;7.20;5.40;;;17.10;99.90;;;;;;5093710;28;20602;-68
2022/05/07 08:00:38;;;;;;;9.60;5.47;;;17.30;99.90;;;;;;5093552;28;20609;-70
2022/05/07 08:03:13;;;;;;;5.47;4.97;;;17.50;99.90;;;;;;5093179;28;21114;-70
2022/05/07 08:05:41;;;;;;;6.57;5.47;;;17.40;99.90;;;;;;5075128;28;20669;-70
2022/05/07 08:13:42;;;;;;;12.20;5.40;;;17.50;99.90;;;;;;5078761;28;21116;-70
2022/05/07 08:16:10;;;;;;;7.10;5.90;;;17.20;99.90;;;;;;5058913;28;20744;-70
2022/05/07 08:18:39;;;;;;;6.60;5.90;;;17.20;99.90;;;;;;5092724;28;21031;-69
2022/05/07 08:21:06;;;;;;;7.10;6.50;;;17.50;99.90;;;;;;5093256;28;20602;-69
2022/05/07 08:23:33;;;;;;;6.87;6.27;;;17.80;99.90;;;;;;5075570;28;20618;-69
2022/05/07 08:26:02;;;;;;;6.50;5.70;;;18.20;99.90;;;;;;5093231;28;20680;-69
2022/05/07 08:28:29;;;;;;;10.70;5.53;;;18.30;99.90;;;;;;5093255;28;20612;-70
2022/05/07 08:30:55;;;;;;;9.73;5.37;;;18.00;99.90;;;;;;5092979;28;20629;-70
2022/05/07 08:33:21;;;;;;;8.10;6.23;;;18.10;99.90;;;;;;5093499;28;20610;-70
2022/05/07 08:35:48;;;;;;;9.17;6.47;;;18.20;99.90;;;;;;5075043;28;20633;-68
2022/05/07 08:38:15;;;;;;;6.77;5.73;;;18.30;99.90;;;;;;5092732;28;20670;-68
2022/05/07 08:40:42;;;;;;;5.53;5.20;;;18.50;99.90;;;;;;5075110;28;20613;-69
2022/05/07 08:43:09;;;;;;;6.90;5.70;;;18.40;99.90;;;;;;5093361;28;20606;-68
2022/05/07 08:45:36;;;;;;;6.10;5.07;;;18.30;99.90;;;;;;5093383;28;20652;-68
2022/05/07 08:48:03;;;;;;;6.07;5.47;;;18.40;99.90;;;;;;5075052;28;20609;-69
2022/05/07 08:50:29;;;;;;;5.10;4.67;;;18.50;99.90;;;;;;5093315;28;20617;-68
2022/05/07 08:52:55;;;;;;;6.40;4.70;;;18.60;99.90;;;;;;5092897;28;21042;-68
2022/05/07 08:55:22;;;;;;;5.33;4.93;;;18.40;99.90;;;;;;5074724;28;21178;-68
2022/05/07 08:57:53;;;;;;;7.87;6.70;;;18.70;99.90;;;;;;5096659;28;20613;-68
2022/05/07 09:00:22;;;;;;;5.87;5.13;;;18.80;99.90;;;;;;5097122;28;20666;-69
2022/05/07 09:02:50;;;;;;;8.43;5.10;;;18.60;99.90;;;;;;5097298;28;20667;-69
2022/05/07 09:05:19;;;;;;;5.83;5.43;;;18.50;99.90;;;;;;5096899;28;20644;-69
2022/05/07 09:07:58;;;;;;;6.03;5.50;;;18.50;99.90;;;;;;5075494;28;20646;-69
2022/05/07 09:10:26;;;;;;;10.53;5.80;;;18.70;99.90;;;;;;5075190;28;20621;-69
2022/05/07 09:12:53;;;;;;;5.60;4.90;;;18.80;99.90;;;;;;5076292;28;20622;-69
2022/05/07 09:15:20;;;;;;;9.07;5.37;;;19.30;99.90;;;;;;5076467;28;20680;-70
2022/05/07 09:17:47;;;;;;;9.77;5.23;;;19.30;99.90;;;;;;5075139;28;20622;-70
2022/05/07 09:20:16;;;;;;;5.97;5.13;;;19.50;99.90;;;;;;5076656;28;21018;-69
2022/05/07 09:22:50;;;;;;;13.10;5.63;;;19.70;99.90;;;;;;5076713;28;20956;-69
2022/05/07 09:25:24;;;;;;;5.40;4.97;;;19.70;99.90;;;;;;5076567;28;21205;-69
2022/05/07 09:27:54;;;;;;;7.27;5.33;;;19.70;99.90;;;;;;5076991;28;20597;-69
2022/05/07 09:30:23;;;;;;;12.43;5.10;;;20.00;99.90;;;;;;5074754;28;21224;-69
2022/05/07 09:32:53;;;;;;;9.23;4.90;;;20.00;99.90;;;;;;5075192;28;20618;-69
2022/05/07 09:35:47;;;;;;;4.83;4.30;;;20.40;99.90;;;;;;5076412;28;20621;-69
2022/05/07 09:38:15;;;;;;;7.57;4.33;;;20.50;99.90;;;;;;5074522;28;21183;-69
2022/05/07 09:40:43;;;;;;;4.80;4.40;;;20.50;99.90;;;;;;5076143;28;20606;-69
2022/05/07 09:43:13;;;;;;;5.17;4.10;;;20.70;99.90;;;;;;5076336;28;20607;-69
2022/05/07 09:45:40;;;;;;;6.63;4.70;;;20.90;99.90;;;;;;5075759;28;20706;-69
2022/05/07 09:48:08;;;;;;;6.57;5.23;;;20.80;99.90;;;;;;5074873;28;20667;-68
2022/05/07 09:58:40;;;;;;;4.27;3.30;;;20.90;99.90;;;;;;5075759;28;20597;-69
2022/05/07 10:01:21;;;;;;;3.90;3.70;;;21.00;99.90;;;;;;5075658;28;20969;-69
2022/05/07 10:03:56;;;;;;;3.77;3.57;;;21.00;99.90;;;;;;5075713;28;20614;-69
2022/05/07 10:06:34;;;;;;;3.30;3.10;;;21.20;99.90;;;;;;5081553;28;20664;-69
2022/05/07 10:09:27;;;;;;;3.83;3.53;;;21.60;99.90;;;;;;5095609;28;20918;-69
2022/05/07 10:11:58;;;;;;;7.43;3.80;;;21.50;99.90;;;;;;5095782;28;20570;-69
2022/05/07 10:14:26;;;;;;;3.93;3.70;;;21.60;99.90;;;;;;5095449;28;20612;-69
2022/05/07 10:17:01;;;;;;;4.57;4.27;;;20.80;99.90;;;;;;5077455;28;20673;-69
2022/05/07 10:19:42;;;;;;;7.80;3.77;;;20.70;99.90;;;;;;5077207;28;20620;-69
2022/05/07 10:22:26;;;;;;;4.70;3.83;;;21.30;99.90;;;;;;5078287;28;20625;-70
2022/05/07 10:25:06;;;;;;;4.63;3.37;;;21.70;99.90;;;;;;5062104;28;20612;-69
2022/05/07 10:27:33;;;;;;;3.67;2.60;;;22.20;99.90;;;;;;5076932;28;20656;-69
2022/05/07 10:30:13;;;;;;;2.93;2.70;;;21.90;99.90;;;;;;5095376;28;20679;-69
2022/05/07 10:33:01;;;;;;;2.57;2.47;;;21.70;99.90;;;;;;5095038;28;20573;-69
2022/05/07 10:35:58;;;;;;;6.07;3.37;;;22.10;99.90;;;;;;5094957;28;20628;-69
2022/05/07 10:38:36;;;;;;;4.13;3.73;;;22.20;99.90;;;;;;5094670;28;21170;-69
2022/05/07 10:41:05;;;;;;;4.70;3.40;;;22.20;99.90;;;;;;5094844;28;20609;-69
2022/05/07 10:43:34;;;;;;;3.40;3.20;;;22.10;99.90;;;;;;5076787;28;20615;-69
2022/05/07 10:46:22;;;;;;;3.40;2.90;;;22.40;99.90;;;;;;5094406;28;20668;-69
2022/05/07 10:48:57;;;;;;;3.50;3.20;;;22.30;99.90;;;;;;5095344;28;20569;-69
2022/05/07 10:51:28;;;;;;;4.43;2.60;;;22.40;99.90;;;;;;5095197;28;20597;-69
2022/05/07 10:54:00;;;;;;;3.10;2.83;;;22.40;99.90;;;;;;5095213;28;20597;-68
2022/05/07 10:56:28;;;;;;;4.97;2.67;;;22.60;99.90;;;;;;5077885;28;20928;-68
2022/05/07 10:58:59;;;;;;;3.00;2.70;;;22.80;99.90;;;;;;5060177;28;20620;-68
2022/05/07 11:01:27;;;;;;;5.10;3.90;;;22.80;99.90;;;;;;5076458;28;20967;-68
2022/05/07 11:04:07;;;;;;;2.90;2.60;;;22.60;99.90;;;;;;5076899;28;20614;-69
2022/05/07 11:06:48;;;;;;;2.53;2.30;;;21.80;99.90;;;;;;5094428;28;20668;-69
2022/05/07 11:09:17;;;;;;;2.50;2.40;;;21.70;99.90;;;;;;5076589;28;20608;-68
2022/05/07 11:11:49;;;;;;;4.00;3.70;;;22.30;99.90;;;;;;5094638;28;20613;-68
2022/05/07 11:14:25;;;;;;;3.40;2.70;;;22.80;99.90;;;;;;5094596;28;20609;-69
2022/05/07 11:16:56;;;;;;;3.27;3.07;;;23.00;99.90;;;;;;5076316;28;20619;-69
2022/05/07 11:19:27;;;;;;;3.03;2.83;;;22.80;99.90;;;;;;5075533;28;20613;-69
2022/05/07 11:21:55;;;;;;;3.80;3.50;;;22.70;99.90;;;;;;5094065;28;20605;-69
2022/05/07 11:24:21;;;;;;;2.97;2.50;;;23.10;99.90;;;;;;5094436;28;20613;-69
2022/05/07 11:26:51;;;;;;;2.67;2.47;;;24.00;99.90;;;;;;5075944;28;21027;-68
2022/05/07 11:29:18;;;;;;;3.27;3.07;;;23.70;99.90;;;;;;5094232;28;20613;-69
2022/05/07 11:31:54;;;;;;;4.23;3.83;;;23.90;99.90;;;;;;5094089;28;21024;-69
2022/05/07 11:34:37;;;;;;;3.73;2.97;;;23.80;99.90;;;;;;5075839;28;21260;-68
2022/05/07 11:37:21;;;;;;;5.03;3.10;;;23.70;99.90;;;;;;5075908;28;20974;-69
2022/05/07 11:39:56;;;;;;;3.63;3.20;;;23.90;99.90;;;;;;5093960;28;20612;-69
2022/05/07 11:42:26;;;;;;;4.30;3.10;;;25.00;99.90;;;;;;5093762;28;20609;-69
2022/05/07 11:48:09;;;;;;;5.00;2.83;;;25.60;99.90;;;;;;5093806;28;21194;-69
2022/05/07 11:50:49;;;;;;;4.27;3.03;;;26.50;99.90;;;;;;5058775;28;20625;-69
2022/05/07 11:53:21;;;;;;;2.67;2.50;;;26.20;99.90;;;;;;5077665;28;20569;-69
2022/05/07 11:55:49;;;;;;;3.63;3.43;;;26.70;99.90;;;;;;5093750;28;20632;-69
2022/05/07 11:58:17;;;;;;;4.50;3.70;;;25.80;99.90;;;;;;5093831;28;20639;-69
2022/05/07 12:00:44;;;;;;;3.37;3.10;;;26.50;99.90;;;;;;5093282;28;20671;-69
2022/05/07 12:03:11;;;;;;;4.33;3.93;;;25.50;99.90;;;;;;5094088;28;20610;-69
2022/05/07 12:05:49;;;;;;;3.80;3.50;;;26.40;99.90;;;;;;5093710;28;20644;-69
2022/05/07 12:08:16;;;;;;;5.40;3.80;;;26.30;99.90;;;;;;5093927;28;20569;-69
2022/05/07 12:10:44;;;;;;;3.63;3.33;;;26.10;99.90;;;;;;5093663;28;20609;-69
2022/05/07 12:13:13;;;;;;;5.97;2.90;;;25.60;99.90;;;;;;5075621;28;20992;-69
2022/05/07 12:18:29;;;;;;;4.50;3.07;;;26.60;99.90;;;;;;5042156;28;21171;-69
2022/05/07 12:20:57;;;;;;;3.50;3.30;;;26.50;99.90;;;;;;5092926;28;20636;-69
2022/05/07 12:31:39;;;;;;;3.20;2.90;;;26.80;99.90;;;;;;5093484;28;20955;-69
2022/05/07 12:34:06;;;;;;;7.03;3.73;;;26.50;99.90;;;;;;5074644;28;20667;-70
2022/05/07 12:36:32;;;;;;;5.43;3.27;;;27.00;99.90;;;;;;5093147;28;20988;-70
2022/05/07 12:38:59;;;;;;;3.87;3.67;;;28.00;99.90;;;;;;5074587;28;20990;-69
2022/05/07 12:41:26;;;;;;;3.00;2.80;;;28.70;99.90;;;;;;5092993;28;21172;-69
2022/05/07 12:43:54;;;;;;;3.80;3.57;;;27.60;99.90;;;;;;5074536;28;21196;-69
2022/05/07 12:46:21;;;;;;;11.40;3.50;;;28.00;99.90;;;;;;5092775;28;20664;-69
2022/05/07 12:48:47;;;;;;;3.27;2.90;;;27.50;99.90;;;;;;5092270;28;20625;-69
2022/05/07 12:51:14;;;;;;;3.53;3.33;;;28.10;99.90;;;;;;5093471;28;20615;-69
2022/05/07 12:53:40;;;;;;;3.57;3.20;;;28.20;99.90;;;;;;5074924;28;20625;-70
2022/05/07 12:56:07;;;;;;;3.93;3.73;;;28.40;99.90;;;;;;5074974;28;20628;-69
2022/05/07 12:58:35;;;;;;;3.30;3.10;;;25.70;99.90;;;;;;5092364;28;20613;-68
2022/05/07 13:01:01;;;;;;;4.00;3.33;;;25.70;99.90;;;;;;5092841;28;20620;-69
2022/05/07 13:03:28;;;;;;;3.70;3.33;;;26.20;99.90;;;;;;5074791;28;21172;-69
2022/05/07 13:05:54;;;;;;;5.20;3.47;;;27.70;99.90;;;;;;5074859;28;20996;-69
2022/05/07 13:08:20;;;;;;;4.00;3.77;;;28.20;99.90;;;;;;5075087;28;20641;-69
2022/05/07 13:10:48;;;;;;;4.10;3.50;;;28.80;99.90;;;;;;5092970;28;20616;-69
2022/05/07 13:13:17;;;;;;;8.00;3.70;;;27.40;99.90;;;;;;5092775;28;20610;-69
2022/05/07 13:15:43;;;;;;;4.77;3.50;;;27.30;99.90;;;;;;5091828;28;20610;-68
2022/05/07 13:18:12;;;;;;;3.90;3.60;;;27.40;99.90;;;;;;5092612;28;20609;-69
2022/05/07 13:20:39;;;;;;;3.20;3.00;;;26.20;99.90;;;;;;5092557;28;20625;-69
2022/05/07 13:23:06;;;;;;;4.90;4.40;;;25.40;99.90;;;;;;5092985;28;20650;-68
2022/05/07 13:25:32;;;;;;;4.50;4.20;;;25.40;99.90;;;;;;5092634;28;20975;-68
2022/05/07 13:27:58;;;;;;;4.37;4.07;;;24.80;99.90;;;;;;5091980;28;20669;-68
2022/05/07 13:30:25;;;;;;;5.17;4.70;;;24.70;99.90;;;;;;5092758;28;20602;-69
2022/05/07 13:32:52;;;;;;;4.50;4.30;;;24.80;99.90;;;;;;5092449;28;20616;-69
2022/05/07 13:35:19;;;;;;;10.60;4.50;;;25.30;99.90;;;;;;5092041;28;20613;-69
2022/05/07 13:37:45;;;;;;;4.73;3.90;;;25.10;99.90;;;;;;5092395;28;20625;-69